Latest Weather Observations for Hervey Bay

IDQ60801

Issued at 3:32 am EST Wednesday 22 April 2015 (issued every 30 minutes, with the page automatically refreshed every 10 minutes)

About weather observations | Map of weather stations | Latest weather observations for QLD | Other Formats
Station Details ID: 040405 Name: HERVEY BAY AIRPORT Lat: -25.32 Lon: 152.88 Height: 12.98 m
Data from the previous 72 hours. | See also: Recent months at Hervey Bay
Date/Time
EST
Temp
°C
App
Temp
°C
Dew
Point
Rel
Hum
%
Delta-T
°C
Wind Press
QNH
hPa
Press
MSL
hPa
Rain
since 9 am
mm
Dir
 
Spd
km/h
Gust
km/h
Spd
kts
Gust
kts
22/03:00am 11.9 9.1 6.8 71 2.4 WSW 11 17 6 9 1014.8 1014.7 0.2
22/02:30am 11.8 8.7 7.3 74 2.2 WSW 13 17 7 9 1015.1 1015.0 0.2
22/02:00am 11.1 8.8 7.6 79 1.7 WSW 9 13 5 7 1015.2 1015.1 0.2
22/01:30am 11.0 9.9 8.6 85 1.2 SSW 4 9 2 5 1015.6 1015.5 0.2
22/01:00am 11.3 9.2 8.3 82 1.5 SW 9 13 5 7 1015.9 1015.8 0.2
22/12:30am 12.0 10.4 7.9 76 2.0 SSW 6 9 3 5 1016.1 1016.0 0.2
22/12:00am 12.9 11.2 8.2 73 2.3 SW 7 13 4 7 1016.2 1016.1 0.2
 
Date/Time
EST
Temp
°C
App
Temp
°C
Dew
Point
Rel
Hum
%
Delta-T
°C
Wind Press
QNH
hPa
Press
MSL
hPa
Rain
since 9 am
mm
Dir
 
Spd
km/h
Gust
km/h
Spd
kts
Gust
kts
21/11:30pm 13.2 10.6 7.6 69 2.7 SW 11 15 6 8 1016.4 1016.3 0.2
21/11:00pm 14.1 11.5 7.6 65 3.2 SW 11 17 6 9 1016.8 1016.7 0.2
21/10:30pm 14.7 11.7 7.7 63 3.5 WSW 13 17 7 9 1016.9 1016.8 0.2
21/10:00pm 15.0 12.0 7.8 62 3.6 WSW 13 17 7 9 1017.0 1016.9 0.2
21/09:30pm 15.2 12.7 8.0 62 3.6 SW 11 15 6 8 1017.0 1016.9 0.2
21/09:00pm 15.5 12.9 7.8 60 3.8 SW 11 15 6 8 1017.0 1016.9 0.2
21/08:30pm 16.3 13.7 7.8 57 4.3 SW 11 17 6 9 1016.8 1016.7 0.2
21/08:00pm 16.2 14.1 8.4 60 4.0 SW 9 15 5 8 1016.5 1016.4 0.2
21/07:30pm 16.4 15.2 10.3 67 3.2 SW 7 11 4 6 1016.2 1016.1 0.2
21/07:00pm 17.2 15.8 10.8 66 3.4 SW 9 13 5 7 1015.8 1015.7 0.2
21/06:30pm 18.2 16.3 10.6 61 4.1 WSW 11 15 6 8 1015.5 1015.4 0.2
21/06:00pm 17.2 16.9 12.7 75 2.5 SW 6 7 3 4 1015.2 1015.1 0.2
21/05:30pm 19.5 19.2 12.7 65 3.8 WSW 6 7 3 4 1014.8 1014.7 0.2
21/05:00pm 21.7 20.2 10.5 49 6.1 SW 9 11 5 6 1014.7 1014.6 0.2
21/04:30pm 23.1 21.0 9.8 43 7.2 SW 11 13 6 7 1014.5 1014.4 0.2
21/04:00pm 24.1 22.3 9.3 39 8.0 SW 9 11 5 6 1014.6 1014.5 0.2
21/03:30pm 23.6 21.8 9.6 41 7.6 WSW 9 15 5 8 1014.7 1014.6 0.2
21/02:30pm 22.9 20.2 9.0 41 7.4 SW 13 19 7 10 1014.9 1014.8 0.2
21/02:00pm 22.9 20.5 8.6 40 7.6 WSW 11 17 6 9 1015.0 1014.9 0.2
21/01:30pm 23.0 20.6 8.7 40 7.6 WSW 11 17 6 9 1015.2 1015.1 0.2
21/01:00pm 22.6 19.7 8.3 40 7.5 SW 13 20 7 11 1015.7 1015.6 0.2
21/12:30pm 21.6 18.0 6.7 38 7.6 SW 15 24 8 13 1016.1 1016.0 0.2
21/12:00pm 21.6 18.6 9.2 45 6.6 WSW 15 24 8 13 1016.5 1016.4 0.2
21/11:30am 21.0 17.8 8.3 44 6.6 SW 15 22 8 12 1016.9 1016.8 0.2
21/11:00am 19.6 16.1 8.6 49 5.7 SW 17 24 9 13 1017.4 1017.3 0.2
21/10:30am 18.9 15.9 9.4 54 5.0 SW 15 20 8 11 1017.6 1017.5 0.2
21/10:00am 18.2 14.9 8.2 52 5.1 SW 15 22 8 12 1017.6 1017.5 0.2
21/09:30am 18.0 14.5 8.6 54 4.9 SW 17 28 9 15 1017.7 1017.6 0.0
21/09:00am 16.8 13.9 9.7 63 3.7 SW 15 20 8 11 1017.9 1017.8 2.6
21/08:30am 16.2 12.4 8.9 62 3.7 SW 19 26 10 14 1017.8 1017.7 2.6
21/08:00am 15.5 12.5 9.2 66 3.2 SW 15 24 8 13 1017.7 1017.6 2.6
21/07:30am 14.9 12.7 9.3 69 2.9 SW 11 17 6 9 1017.5 1017.4 2.6
21/07:00am 14.6 11.6 9.4 71 2.7 WSW 15 20 8 11 1017.1 1017.0 2.6
21/06:30am 14.3 12.2 9.9 75 2.3 WSW 11 17 6 9 1016.8 1016.7 2.6
21/06:00am 14.6 12.2 10.2 75 2.3 SW 13 20 7 11 1016.4 1016.3 2.6
21/05:30am 15.1 12.4 10.5 74 2.4 SW 15 22 8 12 1016.4 1016.3 2.6
21/05:00am 15.6 12.0 10.6 72 2.6 SW 20 28 11 15 1016.2 1016.1 2.6
21/04:30am 15.8 13.0 11.2 74 2.5 SW 17 24 9 13 1016.2 1016.1 2.6
21/04:00am 16.0 13.3 11.6 75 2.4 SW 17 24 9 13 1016.0 1015.9 2.6
21/03:30am 16.1 13.1 12.1 77 2.2 WSW 19 35 10 19 1015.9 1015.8 2.6
21/03:00am 16.5 13.8 13.0 80 1.9 WSW 19 28 10 15 1015.9 1015.8 2.6
21/02:30am 16.6 14.5 13.5 82 1.7 WSW 17 22 9 12 1015.9 1015.8 2.6
21/02:00am 16.8 14.7 13.7 82 1.7 SW 17 26 9 14 1016.1 1016.0 2.6
21/01:30am 16.9 15.7 14.0 83 1.6 SW 13 19 7 10 1016.6 1016.5 2.6
21/01:00am 16.9 14.9 14.0 83 1.6 WSW 17 24 9 13 1016.7 1016.6 2.6
21/12:30am 16.9 15.0 14.2 84 1.5 SW 17 22 9 12 1017.0 1016.9 2.6
21/12:00am 16.9 15.6 14.7 87 1.3 WSW 15 20 8 11 1017.0 1016.9 2.6
 
Date/Time
EST
Temp
°C
App
Temp
°C
Dew
Point
Rel
Hum
%
Delta-T
°C
Wind Press
QNH
hPa
Press
MSL
hPa
Rain
since 9 am
mm
Dir
 
Spd
km/h
Gust
km/h
Spd
kts
Gust
kts
20/11:30pm 17.1 16.2 14.9 87 1.3 SW 13 20 7 11 1017.1 1017.0 2.6
20/11:00pm 17.4 16.0 15.6 89 1.1 WSW 17 26 9 14 1017.8 1017.7 2.6
20/10:55pm 17.5 16.2 15.7 89 1.1 WSW 17 22 9 12 1017.8 1017.7 2.6
20/10:30pm 17.9 17.6 16.4 91 0.9 WSW 13 20 7 11 1017.9 1017.8 2.6
20/10:00pm 18.8 19.1 17.8 94 0.6 W 13 20 7 11 1018.0 1017.9 2.6
20/09:42pm 19.0 19.7 18.0 94 0.6 W 11 17 6 9 1018.0 1017.9 2.6
20/09:30pm 19.1 19.9 18.1 94 0.6 W 11 19 6 10 1017.5 1017.4 2.6
20/09:00pm 19.3 20.9 18.3 94 0.6 ENE 7 11 4 6 1016.8 1016.7 2.6
20/08:30pm 19.1 20.6 18.1 94 0.6 S 7 11 4 6 1017.1 1017.0 2.4
20/08:00pm 18.8 19.8 17.8 94 0.6 S 9 13 5 7 1016.9 1016.8 2.4
20/07:30pm 19.0 19.7 18.0 94 0.6 SSW 11 15 6 8 1017.2 1017.1 2.4
20/07:00pm 18.9 20.0 17.9 94 0.6 SSW 9 13 5 7 1017.4 1017.3 2.4
20/06:30pm 19.0 21.8 18.0 94 0.6 CALM 0 9 0 5 1017.4 1017.3 2.4
20/06:00pm 19.0 21.7 17.8 93 0.7 CALM 0 0 0 0 1017.2 1017.1 2.4
20/05:30pm 18.9 20.3 17.7 93 0.7 SSW 7 11 4 6 1017.3 1017.2 2.4
20/05:00pm 18.8 19.3 17.5 92 0.8 SSW 11 17 6 9 1017.3 1017.2 2.2
20/04:30pm 18.7 18.8 17.5 93 0.7 S 13 19 7 10 1016.8 1016.7 2.2
20/04:00pm 18.7 17.6 17.4 92 0.8 SSW 19 26 10 14 1016.9 1016.8 2.2
20/03:30pm 19.6 18.8 18.4 93 0.7 SSW 20 30 11 16 1016.5 1016.4 1.2
20/03:28pm 19.6 19.0 18.4 93 0.7 SSW 19 30 10 16 1016.5 1016.4 1.2
20/03:00pm 19.8 19.5 18.3 91 0.9 SW 17 30 9 16 1016.4 1016.3 0.6
20/02:34pm 21.2 20.2 18.8 86 1.5 SW 22 33 12 18 1016.1 1016.0 0.4
20/02:30pm 21.8 21.0 18.4 81 2.1 SSW 20 33 11 18 1015.9 1015.8 0.4
20/02:00pm 23.6 24.3 18.9 75 3.0 S 13 24 7 13 1015.7 1015.6 0.4
20/01:30pm 23.8 24.6 19.9 79 2.5 SSW 15 20 8 11 1015.9 1015.8 0.4
20/01:00pm 23.9 24.7 19.8 78 2.6 SSW 15 20 8 11 1016.2 1016.1 0.4
20/12:30pm 24.6 26.2 19.9 75 3.0 S 11 17 6 9 1016.4 1016.3 0.2
20/12:00pm 23.9 25.6 20.2 80 2.4 SSW 11 15 6 8 1016.8 1016.7 0.2
20/11:30am 23.6 25.6 20.7 84 1.9 SW 11 13 6 7 1017.4 1017.3 0.2
20/11:00am 22.9 25.4 21.0 89 1.2 SW 9 13 5 7 1017.7 1017.6 0.2
20/10:35am 21.9 24.5 20.4 91 1.0 SW 7 9 4 5 1018.0 1017.9 0.2
20/10:30am 21.8 23.9 20.1 90 1.1 WSW 9 13 5 7 1018.1 1018.0 0.2
20/10:18am 21.7 23.2 19.8 89 1.2 WSW 11 17 6 9 1018.3 1018.2 0.2
20/10:00am 21.8 23.1 20.1 90 1.1 WSW 13 19 7 10 1018.5 1018.4 0.0
20/09:30am 21.6 23.2 19.9 90 1.1 SW 11 17 6 9 1018.5 1018.4 0.0
20/09:00am 21.5 23.3 19.6 89 1.2 WSW 9 15 5 8 1018.5 1018.4 5.0
20/08:30am 21.1 23.0 19.7 92 0.9 WSW 9 13 5 7 1018.2 1018.1 5.0
20/08:00am 20.9 23.3 19.7 93 0.8 WSW 6 9 3 5 1018.0 1017.9 5.0
20/07:30am 20.6 22.4 19.6 94 0.6 WSW 9 13 5 7 1018.0 1017.9 5.0
20/07:00am 20.6 22.4 19.6 94 0.6 W 9 11 5 6 1017.6 1017.5 4.8
20/06:52am 20.6 23.0 19.6 94 0.6 WNW 6 7 3 4 1017.6 1017.5 4.8
20/06:30am 20.6 23.4 19.6 94 0.6 ENE 4 9 2 5 1017.5 1017.4 4.2
20/06:02am 20.5 22.7 19.5 94 0.6 W 7 11 4 6 1017.3 1017.2 3.0
20/06:00am 20.5 22.7 19.5 94 0.6 W 7 11 4 6 1017.3 1017.2 2.8
20/05:30am 20.7 22.6 19.7 94 0.6 WSW 9 11 5 6 1017.1 1017.0 1.8
20/05:00am 20.8 22.8 20.0 95 0.5 WSW 9 13 5 7 1016.8 1016.7 1.4
20/04:30am 20.7 23.0 19.9 95 0.5 SW 7 11 4 6 1016.2 1016.1 1.4
20/04:24am 20.6 22.5 19.8 95 0.5 SW 9 13 5 7 1016.1 1016.0 1.4
20/04:11am 20.6 22.4 19.6 94 0.6 S 9 17 5 9 1016.3 1016.2 0.8
20/04:00am 20.7 22.6 19.7 94 0.6 SSW 9 11 5 6 1016.4 1016.3 0.0
20/03:30am 20.6 22.4 19.6 94 0.6 SSW 9 13 5 7 1016.4 1016.3 0.0
20/03:00am 20.5 22.7 19.5 94 0.6 SSW 7 11 4 6 1016.4 1016.3 0.0
20/02:30am 20.5 22.3 19.5 94 0.6 SSW 9 11 5 6 1016.6 1016.5 0.0
20/02:00am 20.6 22.9 19.8 95 0.5 SW 7 9 4 5 1016.9 1016.8 0.0
20/01:30am 20.6 22.5 19.8 95 0.5 SW 9 13 5 7 1017.3 1017.2 0.0
20/01:00am 19.7 22.8 18.7 94 0.6 CALM 0 0 0 0 1017.2 1017.1 0.0
20/12:30am 19.9 22.7 18.9 94 0.6 SSW 2 7 1 4 1017.4 1017.3 0.0
20/12:00am 19.2 22.0 18.0 93 0.7 CALM 0 0 0 0 1017.3 1017.2 0.0
 
Date/Time
EST
Temp
°C
App
Temp
°C
Dew
Point
Rel
Hum
%
Delta-T
°C
Wind Press
QNH
hPa
Press
MSL
hPa
Rain
since 9 am
mm
Dir
 
Spd
km/h
Gust
km/h
Spd
kts
Gust
kts
19/11:30pm 19.7 22.7 18.5 93 0.7 CALM 0 0 0 0 1017.7 1017.6 0.0
19/11:00pm 19.5 22.4 18.2 92 0.8 CALM 0 0 0 0 1017.8 1017.7 0.0
19/10:30pm 20.2 23.3 18.7 91 0.9 CALM 0 0 0 0 1017.9 1017.8 0.0
19/10:00pm 20.5 23.8 19.0 91 0.9 CALM 0 0 0 0 1018.4 1018.3 0.0
19/09:30pm 20.9 23.6 19.4 91 1.0 NE 4 7 2 4 1018.3 1018.2 0.0
19/09:00pm 21.4 25.0 19.7 90 1.1 CALM 0 0 0 0 1018.3 1018.2 0.0
19/08:30pm 22.4 24.5 20.1 87 1.5 ENE 9 11 5 6 1018.3 1018.2 0.0
19/08:00pm 22.9 26.1 20.4 86 1.6 NE 4 9 2 5 1018.3 1018.2 0.0
19/07:30pm 23.6 26.3 20.7 84 1.9 NE 7 11 4 6 1017.9 1017.8 0.0
19/07:00pm 23.8 26.5 20.7 83 2.0 NE 7 9 4 5 1017.5 1017.4 0.0
19/06:30pm 24.0 26.5 20.3 80 2.4 NNE 7 7 4 4 1017.3 1017.2 0.0
19/06:00pm 24.5 27.1 20.4 78 2.7 NE 7 9 4 5 1017.0 1016.9 0.0
19/05:30pm 24.8 27.3 20.3 76 2.9 NE 7 9 4 5 1016.8 1016.7 0.0
19/05:00pm 25.0 27.4 20.0 74 3.2 NE 7 9 4 5 1016.8 1016.7 0.0
19/04:30pm 25.8 27.4 20.8 74 3.3 ENE 13 15 7 8 1016.2 1016.1 0.0
19/04:00pm 25.3 26.8 20.5 75 3.1 ENE 13 15 7 8 1016.2 1016.1 0.0
19/03:30pm 26.1 26.8 20.4 71 3.7 ENE 17 26 9 14 1016.4 1016.3 0.0
19/03:00pm 26.8 27.5 20.4 68 4.2 NE 17 22 9 12 1016.2 1016.1 0.0
19/02:30pm 26.5 28.0 20.6 70 3.9 ENE 13 20 7 11 1016.4 1016.3 0.0
19/02:00pm 26.2 27.7 19.8 68 4.1 E 11 15 6 8 1016.5 1016.4 0.0
19/01:30pm 26.6 28.5 19.7 66 4.5 NNE 9 13 5 7 1017.1 1017.0 0.0
19/01:00pm 25.6 27.2 19.9 70 3.7 NE 11 15 6 8 1017.4 1017.3 0.0
19/12:30pm 25.9 27.1 19.8 69 4.0 ENE 13 19 7 10 1017.6 1017.5 0.0
19/12:00pm 25.9 27.4 20.5 72 3.5 NNE 13 19 7 10 1018.0 1017.9 0.0
19/11:30am 26.5 27.4 20.1 68 4.2 ENE 15 19 8 10 1018.4 1018.3 0.0
19/11:00am 26.9 29.1 20.3 67 4.3 NE 9 17 5 9 1018.7 1018.6 0.0
19/10:30am 26.9 28.7 20.3 67 4.3 ENE 11 17 6 9 1018.9 1018.8 0.0
19/10:00am 26.5 28.8 21.3 73 3.4 NE 11 15 6 8 1019.0 1018.9 0.0
19/09:30am 25.1 27.2 20.1 74 3.2 ESE 9 13 5 7 1019.2 1019.1 0.0
19/09:00am 25.0 27.7 20.7 77 2.8 E 7 11 4 6 1019.2 1019.1 2.0
19/08:30am 23.1 26.0 20.6 86 1.6 SW 6 9 3 5 1019.4 1019.3 2.0
19/08:00am 21.6 24.0 20.1 91 1.0 SW 7 7 4 4 1019.3 1019.2 2.0
19/07:30am 20.8 24.4 19.8 94 0.6 CALM 0 0 0 0 1019.1 1019.0 2.0
19/07:00am 19.7 22.8 18.7 94 0.6 CALM 0 0 0 0 1018.8 1018.7 2.0
19/06:30am 18.3 20.7 17.1 93 0.7 CALM 0 0 0 0 1018.5 1018.4 2.0
19/06:00am 18.2 19.8 17.0 93 0.7 SSW 4 7 2 4 1018.2 1018.1 2.0
19/05:30am 18.3 19.6 17.1 93 0.7 SSW 6 6 3 3 1018.1 1018.0 2.0
19/05:00am 18.5 20.6 17.2 92 0.8 SSW 2 6 1 3 1018.0 1017.9 2.0
19/04:30am 19.3 22.2 18.1 93 0.7 CALM 0 0 0 0 1017.8 1017.7 2.0
19/04:00am 19.8 22.9 18.6 93 0.7 CALM 0 6 0 3 1017.8 1017.7 2.0

Other Formats:

Comma delimited format used in spreadsheet applications
http://www.bom.gov.au/fwo/IDQ60801/IDQ60801.95565.axf

JavaScript Object Notation format (JSON) in row-major order
http://www.bom.gov.au/fwo/IDQ60801/IDQ60801.95565.json